Time;durP1;ratioP1;P1;durP2;ratioP2;P2;SDS_P1;SDS_P2;PMS_P1;PMS_P2;Temp;Humidity;BMP_temperature;BMP_pressure;BME280_temperature;BME280_humidity;BME280_pressure;Samples;Min_cycle;Max_cycle;Signal;HPM_P1;HPM_P2
2022/08/14 00:02:13;;;;;;;0.00;0.00;;;;;;;;;;5052263;28;20037;-59
2022/08/14 00:04:38;;;;;;;0.00;0.00;;;;;;;;;;5051455;28;20013;-59
2022/08/14 00:07:03;;;;;;;0.00;0.00;;;;;;;;;;5051800;28;20027;-57
2022/08/14 00:09:29;;;;;;;0.00;0.00;;;;;;;;;;5051393;28;20465;-58
2022/08/14 00:11:55;;;;;;;0.00;0.00;;;;;;;;;;5051916;28;20112;-59
2022/08/14 00:14:20;;;;;;;0.00;0.00;;;;;;;;;;5051462;28;20021;-57
2022/08/14 00:16:47;;;;;;;0.00;0.00;;;;;;;;;;5050882;28;20025;-58
2022/08/14 00:19:12;;;;;;;0.00;0.00;;;;;;;;;;5051501;28;20032;-59
2022/08/14 00:21:38;;;;;;;0.00;0.00;;;;;;;;;;5051021;28;20370;-59
2022/08/14 00:24:03;;;;;;;0.00;0.00;;;;;;;;;;5051306;28;20021;-58
2022/08/14 00:26:29;;;;;;;0.00;0.00;;;;;;;;;;5051493;28;20017;-58
2022/08/14 00:28:54;;;;;;;0.00;0.00;;;;;;;;;;5051579;28;20021;-57
2022/08/14 00:31:20;;;;;;;0.00;0.00;;;;;;;;;;5051256;28;20024;-58
2022/08/14 00:33:45;;;;;;;0.00;0.00;;;;;;;;;;5051752;28;20029;-57
2022/08/14 00:36:10;;;;;;;0.22;0.22;;;;;;;;;;5051220;28;20017;-57
2022/08/14 00:38:36;;;;;;;0.00;0.00;;;;;;;;;;5050940;28;20029;-58
2022/08/14 00:41:05;;;;;;;0.00;0.00;;;;;;;;;;5051123;28;20112;-57
2022/08/14 00:43:31;;;;;;;0.00;0.00;;;;;;;;;;5050781;28;20124;-58
2022/08/14 00:45:56;;;;;;;0.00;0.00;;;;;;;;;;5050403;28;20108;-57
2022/08/14 00:48:21;;;;;;;0.20;0.20;;;;;;;;;;5050554;28;20012;-58
2022/08/14 00:50:47;;;;;;;1.37;1.37;;;;;;;;;;5051146;28;20267;-57
2022/08/14 00:53:15;;;;;;;0.10;0.10;;;;;;;;;;5051094;28;20305;-59
2022/08/14 00:55:41;;;;;;;0.40;0.40;;;;;;;;;;5050391;28;20043;-57
2022/08/14 01:00:51;;;;;;;0.25;0.25;;;;;;;;;;5050868;28;20444;-58
2022/08/14 01:03:18;;;;;;;0.00;0.00;;;;;;;;;;5051249;28;20017;-59
2022/08/14 01:05:48;;;;;;;0.00;0.00;;;;;;;;;;5050564;28;20071;-58
2022/08/14 01:08:16;;;;;;;0.03;0.03;;;;;;;;;;5050950;28;20045;-58
2022/08/14 01:10:51;;;;;;;1.30;0.43;;;;;;;;;;5049228;28;20704;-58
2022/08/14 01:13:24;;;;;;;0.00;0.00;;;;;;;;;;5050852;28;20051;-58
2022/08/14 01:15:54;;;;;;;0.00;0.00;;;;;;;;;;5049234;28;20052;-58
2022/08/14 01:21:10;;;;;;;0.00;0.00;;;;;;;;;;5050710;28;20040;-58
2022/08/14 01:23:37;;;;;;;0.22;0.22;;;;;;;;;;5050171;28;20049;-59
2022/08/14 01:26:02;;;;;;;0.13;0.10;;;;;;;;;;5050511;28;20029;-58
2022/08/14 01:28:30;;;;;;;1.27;1.27;;;;;;;;;;5050026;28;20029;-57
2022/08/14 01:30:56;;;;;;;0.00;0.00;;;;;;;;;;5049309;28;20470;-57
2022/08/14 01:33:28;;;;;;;0.00;0.00;;;;;;;;;;5049988;28;20044;-57
2022/08/14 01:35:57;;;;;;;0.00;0.00;;;;;;;;;;5050421;28;20087;-57
2022/08/14 01:38:23;;;;;;;0.00;0.00;;;;;;;;;;5050015;28;20108;-58
2022/08/14 01:40:48;;;;;;;0.65;0.50;;;;;;;;;;5049891;28;20017;-58
2022/08/14 01:43:16;;;;;;;1.08;0.55;;;;;;;;;;5049372;28;20454;-58
2022/08/14 01:45:41;;;;;;;0.00;0.00;;;;;;;;;;5049691;28;20600;-58
2022/08/14 01:48:07;;;;;;;0.00;0.00;;;;;;;;;;5050122;28;20833;-57
2022/08/14 01:50:33;;;;;;;0.00;0.00;;;;;;;;;;5049498;28;20029;-58
2022/08/14 01:52:58;;;;;;;0.00;0.00;;;;;;;;;;5050231;28;20426;-58
2022/08/14 01:55:30;;;;;;;0.00;0.00;;;;;;;;;;5049411;28;20486;-58
2022/08/14 01:57:59;;;;;;;0.00;0.00;;;;;;;;;;5049998;28;20033;-57
2022/08/14 02:00:24;;;;;;;0.00;0.00;;;;;;;;;;5048782;28;20454;-58
2022/08/14 02:02:49;;;;;;;0.80;0.80;;;;;;;;;;5049846;28;20020;-59
2022/08/14 02:05:16;;;;;;;0.00;0.00;;;;;;;;;;5050297;28;20029;-58
2022/08/14 02:07:42;;;;;;;0.00;0.00;;;;;;;;;;5049316;28;20051;-58
2022/08/14 02:10:09;;;;;;;0.00;0.00;;;;;;;;;;5049840;28;20387;-58
2022/08/14 02:12:34;;;;;;;0.00;0.00;;;;;;;;;;5048446;28;20017;-58
2022/08/14 02:14:59;;;;;;;0.00;0.00;;;;;;;;;;5048152;28;20028;-58
2022/08/14 02:17:25;;;;;;;0.00;0.00;;;;;;;;;;5049801;28;20050;-60
2022/08/14 02:19:52;;;;;;;0.00;0.00;;;;;;;;;;5049626;28;20033;-58
2022/08/14 02:22:17;;;;;;;0.00;0.00;;;;;;;;;;5049501;28;20051;-59
2022/08/14 02:24:43;;;;;;;0.00;0.00;;;;;;;;;;5048772;28;20462;-57
2022/08/14 02:27:09;;;;;;;0.00;0.00;;;;;;;;;;5049440;28;20027;-58
2022/08/14 02:29:35;;;;;;;0.00;0.00;;;;;;;;;;5047574;28;20500;-58
2022/08/14 02:32:00;;;;;;;0.00;0.00;;;;;;;;;;5049386;28;20064;-58
2022/08/14 02:34:31;;;;;;;0.08;0.08;;;;;;;;;;5049057;28;20760;-58
2022/08/14 02:36:58;;;;;;;0.45;0.45;;;;;;;;;;5048782;28;20061;-57
2022/08/14 02:39:24;;;;;;;0.65;0.65;;;;;;;;;;5049500;28;20024;-58
2022/08/14 02:41:51;;;;;;;0.90;0.90;;;;;;;;;;5047914;28;20323;-57
2022/08/14 02:44:19;;;;;;;0.40;0.38;;;;;;;;;;5049145;28;20604;-57
2022/08/14 02:46:45;;;;;;;0.00;0.00;;;;;;;;;;5048830;28;20498;-57
2022/08/14 02:49:10;;;;;;;0.10;0.10;;;;;;;;;;5049336;28;20036;-58
2022/08/14 02:51:36;;;;;;;0.00;0.00;;;;;;;;;;5048693;28;20436;-56
2022/08/14 02:54:02;;;;;;;0.00;0.00;;;;;;;;;;5048986;28;20021;-57
2022/08/14 02:56:28;;;;;;;0.20;0.20;;;;;;;;;;5048597;28;20049;-59
2022/08/14 02:58:55;;;;;;;0.00;0.00;;;;;;;;;;5049354;28;20053;-58
2022/08/14 03:01:21;;;;;;;0.60;0.60;;;;;;;;;;5049003;28;20020;-57
2022/08/14 03:03:48;;;;;;;0.00;0.00;;;;;;;;;;5048495;28;20029;-57
2022/08/14 03:06:13;;;;;;;0.43;0.43;;;;;;;;;;5049263;28;20012;-57
2022/08/14 03:08:39;;;;;;;1.75;1.75;;;;;;;;;;5048611;28;20581;-57
2022/08/14 03:11:08;;;;;;;0.00;0.00;;;;;;;;;;5047656;28;20544;-57
2022/08/14 03:13:34;;;;;;;0.30;0.30;;;;;;;;;;5048640;28;20426;-59
2022/08/14 03:16:00;;;;;;;0.00;0.00;;;;;;;;;;5049392;28;20035;-58
2022/08/14 03:18:26;;;;;;;0.00;0.00;;;;;;;;;;5048398;28;20427;-57
2022/08/14 03:20:51;;;;;;;0.10;0.10;;;;;;;;;;5048757;28;20658;-58
2022/08/14 03:23:17;;;;;;;0.38;0.38;;;;;;;;;;5049179;28;20067;-58
2022/08/14 03:25:43;;;;;;;0.00;0.00;;;;;;;;;;5048833;28;20028;-58
2022/08/14 03:28:09;;;;;;;0.00;0.00;;;;;;;;;;5048931;28;20033;-59
2022/08/14 03:30:34;;;;;;;0.03;0.03;;;;;;;;;;5048789;28;20040;-58
2022/08/14 03:33:00;;;;;;;0.00;0.00;;;;;;;;;;5049828;28;20108;-58
2022/08/14 03:35:26;;;;;;;0.00;0.00;;;;;;;;;;5052766;28;20064;-59
2022/08/14 03:37:51;;;;;;;0.00;0.00;;;;;;;;;;5051502;28;20036;-57
2022/08/14 03:40:21;;;;;;;0.00;0.00;;;;;;;;;;5051692;28;20047;-58
2022/08/14 03:42:46;;;;;;;;;;;;;;;;;;5052522;28;21006;-58
2022/08/14 03:45:12;;;;;;;0.00;0.00;;;;;;;;;;5052514;28;20354;-58
2022/08/14 03:47:41;;;;;;;0.00;0.00;;;;;;;;;;5052676;28;20390;-58
2022/08/14 03:50:08;;;;;;;0.00;0.00;;;;;;;;;;5052546;28;20110;-58
2022/08/14 03:52:34;;;;;;;0.00;0.00;;;;;;;;;;5052228;28;20017;-57
2022/08/14 03:54:59;;;;;;;0.00;0.00;;;;;;;;;;5052197;28;20075;-58
2022/08/14 03:57:28;;;;;;;0.00;0.00;;;;;;;;;;5052738;28;20041;-57
2022/08/14 03:59:53;;;;;;;0.00;0.00;;;;;;;;;;5052676;28;20029;-57
2022/08/14 04:02:21;;;;;;;0.00;0.00;;;;;;;;;;5052362;28;20091;-57
2022/08/14 04:04:46;;;;;;;0.00;0.00;;;;;;;;;;5051954;28;20270;-58
2022/08/14 04:07:11;;;;;;;0.00;0.00;;;;;;;;;;5051475;28;20033;-58
2022/08/14 04:09:36;;;;;;;0.00;0.00;;;;;;;;;;5051388;28;20266;-57
2022/08/14 04:12:02;;;;;;;0.00;0.00;;;;;;;;;;5052058;28;20036;-56
2022/08/14 04:14:27;;;;;;;0.00;0.00;;;;;;;;;;5052167;28;20024;-58
2022/08/14 04:16:53;;;;;;;0.00;0.00;;;;;;;;;;5052080;28;20056;-59
2022/08/14 04:19:22;;;;;;;0.00;0.00;;;;;;;;;;5051918;28;20100;-58
2022/08/14 04:21:49;;;;;;;0.00;0.00;;;;;;;;;;5051573;28;20079;-57
2022/08/14 04:24:15;;;;;;;0.00;0.00;;;;;;;;;;5051947;28;20025;-57
2022/08/14 04:26:40;;;;;;;0.00;0.00;;;;;;;;;;5051790;28;20070;-58
2022/08/14 04:29:06;;;;;;;0.00;0.00;;;;;;;;;;5051815;28;20021;-58
2022/08/14 04:31:31;;;;;;;0.00;0.00;;;;;;;;;;5051314;28;20028;-56
2022/08/14 04:33:57;;;;;;;0.00;0.00;;;;;;;;;;5051818;28;20036;-57
2022/08/14 04:36:22;;;;;;;0.00;0.00;;;;;;;;;;5050842;28;20496;-57
2022/08/14 04:44:15;;;;;;;0.93;0.93;;;;;;;;;;5051193;28;20040;-58
2022/08/14 04:48:11;;;;;;;0.00;0.00;;;;;;;;;;5049832;28;20028;-58
2022/08/14 04:49:25;;;;;;;1.02;0.90;;;;;;;;;;5051271;28;20024;-57
2022/08/14 04:51:50;;;;;;;0.77;0.35;;;;;;;;;;5050967;28;20040;-58
2022/08/14 04:54:16;;;;;;;1.27;1.17;;;;;;;;;;5051481;28;20029;-59
2022/08/14 04:56:41;;;;;;;0.00;0.00;;;;;;;;;;5050872;28;20310;-57
2022/08/14 04:59:06;;;;;;;0.00;0.00;;;;;;;;;;5051318;28;20751;-58
2022/08/14 05:01:31;;;;;;;0.00;0.00;;;;;;;;;;5050142;28;20028;-58
2022/08/14 05:03:57;;;;;;;0.00;0.00;;;;;;;;;;5050537;28;20043;-57
2022/08/14 05:06:22;;;;;;;0.17;0.17;;;;;;;;;;5049361;28;20021;-58
2022/08/14 05:08:48;;;;;;;0.00;0.00;;;;;;;;;;5050225;28;20256;-59
2022/08/14 05:11:13;;;;;;;0.25;0.25;;;;;;;;;;5050867;28;20017;-59
2022/08/14 05:13:39;;;;;;;0.00;0.00;;;;;;;;;;5050539;28;20110;-57
2022/08/14 05:16:04;;;;;;;0.10;0.10;;;;;;;;;;5049215;28;20846;-58
2022/08/14 05:18:32;;;;;;;0.00;0.00;;;;;;;;;;5050676;28;20048;-58
2022/08/14 05:20:58;;;;;;;0.05;0.05;;;;;;;;;;5049510;28;20021;-58
2022/08/14 05:23:24;;;;;;;0.00;0.00;;;;;;;;;;5050560;28;20382;-59
2022/08/14 05:25:52;;;;;;;0.20;0.20;;;;;;;;;;5050420;28;20032;-58
2022/08/14 05:28:19;;;;;;;0.20;0.20;;;;;;;;;;5050678;28;20470;-58
2022/08/14 05:30:48;;;;;;;0.57;0.57;;;;;;;;;;5050156;28;20020;-57
2022/08/14 05:33:13;;;;;;;;;;;;;;;;;;5050839;28;20531;-58
2022/08/14 05:35:39;;;;;;;0.47;0.47;;;;;;;;;;5048729;28;19908;-58
2022/08/14 05:38:08;;;;;;;0.57;0.57;;;;;;;;;;5050301;28;20294;-58
2022/08/14 05:40:34;;;;;;;0.00;0.00;;;;;;;;;;5050126;28;20024;-59
2022/08/14 05:42:59;;;;;;;0.00;0.00;;;;;;;;;;5050702;28;20534;-58
2022/08/14 05:45:24;;;;;;;0.00;0.00;;;;;;;;;;5050729;28;20032;-57
2022/08/14 05:47:50;;;;;;;0.13;0.13;;;;;;;;;;5049873;28;20608;-58
2022/08/14 05:50:15;;;;;;;0.00;0.00;;;;;;;;;;5050375;28;20389;-57
2022/08/14 05:52:41;;;;;;;0.00;0.00;;;;;;;;;;5049873;28;20524;-57
2022/08/14 05:55:07;;;;;;;0.00;0.00;;;;;;;;;;5050091;28;20048;-58
2022/08/14 05:57:32;;;;;;;0.00;0.00;;;;;;;;;;5049702;28;20485;-58
2022/08/14 05:59:58;;;;;;;0.00;0.00;;;;;;;;;;5050109;28;20017;-59
2022/08/14 06:02:23;;;;;;;0.60;0.17;;;;;;;;;;5050090;28;20033;-57
2022/08/14 06:04:48;;;;;;;0.00;0.00;;;;;;;;;;5048548;28;20024;-59
2022/08/14 06:07:14;;;;;;;4.28;1.55;;;;;;;;;;5050042;28;20025;-59
2022/08/14 06:09:39;;;;;;;0.10;0.10;;;;;;;;;;5049260;28;20025;-58
2022/08/14 06:12:05;;;;;;;0.00;0.00;;;;;;;;;;5050227;28;20025;-58
2022/08/14 06:14:30;;;;;;;0.88;0.88;;;;;;;;;;5049506;28;20037;-58
2022/08/14 06:16:55;;;;;;;0.00;0.00;;;;;;;;;;5049028;28;20025;-57
2022/08/14 06:19:21;;;;;;;0.88;0.88;;;;;;;;;;5049942;28;20029;-58
2022/08/14 06:21:46;;;;;;;0.00;0.00;;;;;;;;;;5049424;28;20027;-57
2022/08/14 06:24:11;;;;;;;0.08;0.08;;;;;;;;;;5049576;28;20056;-58
2022/08/14 06:26:36;;;;;;;0.00;0.00;;;;;;;;;;5049483;28;20032;-57
2022/08/14 06:29:02;;;;;;;0.20;0.20;;;;;;;;;;5050225;28;20025;-58
2022/08/14 06:31:27;;;;;;;0.00;0.00;;;;;;;;;;5048762;28;20263;-59
2022/08/14 06:33:52;;;;;;;0.47;0.47;;;;;;;;;;5048713;28;21294;-59
2022/08/14 06:36:18;;;;;;;0.28;0.28;;;;;;;;;;5049321;28;20456;-58
2022/08/14 06:38:43;;;;;;;0.13;0.13;;;;;;;;;;5049128;28;20017;-58
2022/08/14 06:41:08;;;;;;;0.97;0.33;;;;;;;;;;5049643;28;20056;-58
2022/08/14 06:43:33;;;;;;;0.10;0.10;;;;;;;;;;5051376;28;20346;-59
2022/08/14 06:45:59;;;;;;;1.27;0.50;;;;;;;;;;5050860;28;20344;-58
2022/08/14 06:48:25;;;;;;;0.52;0.52;;;;;;;;;;5050244;28;20256;-59
2022/08/14 06:50:51;;;;;;;1.08;0.52;;;;;;;;;;5051160;28;20036;-59
2022/08/14 06:53:18;;;;;;;0.55;0.55;;;;;;;;;;5051183;28;20127;-59
2022/08/14 06:55:45;;;;;;;0.05;0.05;;;;;;;;;;5050710;28;20041;-59
2022/08/14 06:58:15;;;;;;;0.00;0.00;;;;;;;;;;5051542;28;20025;-61
2022/08/14 07:05:44;;;;;;;0.00;0.00;;;;;;;;;;5047459;28;20080;-59
2022/08/14 07:06:11;;;;;;;0.82;0.15;;;;;;;;;;5050409;28;20032;-59
2022/08/14 07:08:36;;;;;;;0.45;0.30;;;;;;;;;;5052996;28;20017;-59
2022/08/14 07:11:05;;;;;;;0.97;0.97;;;;;;;;;;5053936;28;20436;-59
2022/08/14 07:13:30;;;;;;;0.98;0.98;;;;;;;;;;5051434;28;20609;-59
2022/08/14 07:15:55;;;;;;;1.33;1.23;;;;;;;;;;5054648;28;20033;-59
2022/08/14 07:18:40;;;;;;;1.00;1.00;;;;;;;;;;5054592;28;20025;-59
2022/08/14 07:21:06;;;;;;;0.90;0.90;;;;;;;;;;5054115;28;20078;-59
2022/08/14 07:23:32;;;;;;;0.30;0.30;;;;;;;;;;5055197;28;20021;-58
2022/08/14 07:25:58;;;;;;;0.57;0.57;;;;;;;;;;5055399;28;20104;-60
2022/08/14 07:28:25;;;;;;;0.55;0.55;;;;;;;;;;5054975;28;20052;-58
2022/08/14 07:30:51;;;;;;;0.68;0.68;;;;;;;;;;5054410;28;20032;-58
2022/08/14 07:33:16;;;;;;;0.08;0.08;;;;;;;;;;5055033;28;20043;-58
2022/08/14 07:35:41;;;;;;;0.77;0.77;;;;;;;;;;5054232;28;20029;-58
2022/08/14 07:38:07;;;;;;;0.00;0.00;;;;;;;;;;5054420;28;20748;-59
2022/08/14 07:40:33;;;;;;;0.40;0.20;;;;;;;;;;5054383;28;20110;-59
2022/08/14 07:42:59;;;;;;;0.30;0.30;;;;;;;;;;5052926;28;20016;-59
2022/08/14 07:45:24;;;;;;;0.55;0.55;;;;;;;;;;5054659;28;20048;-57
2022/08/14 07:47:50;;;;;;;0.00;0.00;;;;;;;;;;5054013;28;20482;-58
2022/08/14 07:50:16;;;;;;;1.95;1.73;;;;;;;;;;5054805;28;20025;-58
2022/08/14 07:52:42;;;;;;;0.20;0.20;;;;;;;;;;5054755;28;20419;-59
2022/08/14 07:55:08;;;;;;;3.42;3.22;;;;;;;;;;5054028;28;20081;-58
2022/08/14 07:57:33;;;;;;;0.80;0.80;;;;;;;;;;5054235;28;20013;-58
2022/08/14 07:59:58;;;;;;;0.65;0.65;;;;;;;;;;5053350;28;20017;-59
2022/08/14 08:02:26;;;;;;;2.63;1.05;;;;;;;;;;5054347;28;20017;-60
2022/08/14 08:04:55;;;;;;;0.00;0.00;;;;;;;;;;5049853;28;20470;-58
2022/08/14 08:07:20;;;;;;;0.20;0.20;;;;;;;;;;5054384;28;20013;-59
2022/08/14 08:09:52;;;;;;;0.38;0.38;;;;;;;;;;5053820;28;20022;-58
2022/08/14 08:12:19;;;;;;;0.03;0.03;;;;;;;;;;5052848;28;20033;-58
2022/08/14 08:14:44;;;;;;;0.80;0.75;;;;;;;;;;5053752;28;20044;-58
2022/08/14 08:17:09;;;;;;;0.90;0.80;;;;;;;;;;5053490;28;20386;-59
2022/08/14 08:19:36;;;;;;;3.10;2.92;;;;;;;;;;5053320;28;20108;-59
2022/08/14 08:22:02;;;;;;;0.00;0.00;;;;;;;;;;5053353;28;20140;-58
2022/08/14 08:24:27;;;;;;;0.90;0.90;;;;;;;;;;5053953;28;20032;-58
2022/08/14 08:26:52;;;;;;;0.98;0.52;;;;;;;;;;5053656;28;20382;-59
2022/08/14 08:29:19;;;;;;;0.77;0.77;;;;;;;;;;5053545;28;20021;-58
2022/08/14 08:31:51;;;;;;;0.00;0.00;;;;;;;;;;5053870;28;20039;-58
2022/08/14 08:34:16;;;;;;;0.40;0.40;;;;;;;;;;5053650;28;20393;-59
2022/08/14 08:36:42;;;;;;;0.00;0.00;;;;;;;;;;5053562;28;20032;-59
2022/08/14 08:39:07;;;;;;;4.25;4.15;;;;;;;;;;5049360;28;20478;-59
2022/08/14 08:41:42;;;;;;;1.55;1.55;;;;;;;;;;5051516;28;20369;-58
2022/08/14 08:44:07;;;;;;;2.88;2.67;;;;;;;;;;5051573;28;20032;-59
2022/08/14 08:46:32;;;;;;;0.00;0.00;;;;;;;;;;5053111;28;20462;-59
2022/08/14 08:48:58;;;;;;;0.10;0.10;;;;;;;;;;5051967;28;20013;-58
2022/08/14 08:51:23;;;;;;;3.53;0.50;;;;;;;;;;5051916;28;20016;-59
2022/08/14 08:53:59;;;;;;;0.00;0.00;;;;;;;;;;5052362;28;20020;-60
2022/08/14 08:56:39;;;;;;;0.65;0.65;;;;;;;;;;5050721;28;20041;-60
2022/08/14 08:59:20;;;;;;;2.22;2.03;;;;;;;;;;5051682;28;20167;-60
2022/08/14 09:01:50;;;;;;;0.20;0.20;;;;;;;;;;5051086;28;20331;-60
2022/08/14 09:04:15;;;;;;;0.93;0.77;;;;;;;;;;5052344;28;20347;-59
2022/08/14 09:06:44;;;;;;;0.17;0.17;;;;;;;;;;5052014;28;20028;-59
2022/08/14 09:09:19;;;;;;;0.10;0.10;;;;;;;;;;5046404;28;20490;-59
2022/08/14 09:11:45;;;;;;;0.00;0.00;;;;;;;;;;5050161;28;20024;-61
2022/08/14 09:14:10;;;;;;;2.08;1.25;;;;;;;;;;5050981;28;20490;-61
2022/08/14 09:16:35;;;;;;;0.00;0.00;;;;;;;;;;5051059;28;20032;-60
2022/08/14 09:19:01;;;;;;;0.30;0.30;;;;;;;;;;5045578;28;21011;-60
2022/08/14 09:21:26;;;;;;;0.00;0.00;;;;;;;;;;5050202;28;20499;-61
2022/08/14 09:23:53;;;;;;;0.65;0.65;;;;;;;;;;5049500;28;20040;-60
2022/08/14 09:26:18;;;;;;;0.00;0.00;;;;;;;;;;5049126;28;20024;-59
2022/08/14 09:28:44;;;;;;;0.20;0.20;;;;;;;;;;5045531;28;20036;-60
2022/08/14 09:31:10;;;;;;;1.20;1.17;;;;;;;;;;5047973;28;20021;-60
2022/08/14 09:33:54;;;;;;;0.00;0.00;;;;;;;;;;5048680;28;20052;-60
2022/08/14 09:36:32;;;;;;;0.00;0.00;;;;;;;;;;5048171;28;20021;-60
2022/08/14 09:38:57;;;;;;;0.00;0.00;;;;;;;;;;5045900;28;20025;-60
2022/08/14 09:41:41;;;;;;;0.43;0.43;;;;;;;;;;5049040;28;20182;-60
2022/08/14 09:44:16;;;;;;;0.00;0.00;;;;;;;;;;5048358;28;20021;-60
2022/08/14 09:46:51;;;;;;;0.10;0.10;;;;;;;;;;5049031;28;20028;-60
2022/08/14 09:49:16;;;;;;;0.77;0.77;;;;;;;;;;5046721;28;20029;-61
2022/08/14 09:51:42;;;;;;;0.00;0.00;;;;;;;;;;5049208;28;20371;-60
2022/08/14 09:54:11;;;;;;;0.20;0.20;;;;;;;;;;5048216;28;20061;-60
2022/08/14 09:56:36;;;;;;;;;;;;;;;;;;5049772;28;20045;-60
2022/08/14 09:59:12;;;;;;;0.70;0.70;;;;;;;;;;5049618;28;19927;-60
2022/08/14 10:01:39;;;;;;;0.35;0.35;;;;;;;;;;5048635;28;20090;-60
2022/08/14 10:04:05;;;;;;;0.00;0.00;;;;;;;;;;5047961;28;20104;-61
2022/08/14 10:06:41;;;;;;;4.82;4.63;;;;;;;;;;5049423;28;20021;-60
2022/08/14 10:09:06;;;;;;;0.28;0.28;;;;;;;;;;5046838;28;20411;-60
2022/08/14 10:11:36;;;;;;;0.20;0.20;;;;;;;;;;5048804;28;20068;-61
2022/08/14 10:14:11;;;;;;;0.25;0.25;;;;;;;;;;5048848;28;20263;-60
2022/08/14 10:16:40;;;;;;;0.08;0.08;;;;;;;;;;5049270;28;20100;-60
2022/08/14 10:19:07;;;;;;;0.35;0.30;;;;;;;;;;5048340;28;20024;-60
2022/08/14 10:21:33;;;;;;;0.00;0.00;;;;;;;;;;5048224;28;20124;-61
2022/08/14 10:23:59;;;;;;;0.00;0.00;;;;;;;;;;5047614;28;20373;-60
2022/08/14 10:26:24;;;;;;;0.00;0.00;;;;;;;;;;5048878;28;20028;-61
2022/08/14 10:28:50;;;;;;;0.57;0.57;;;;;;;;;;5048680;28;20029;-61
2022/08/14 10:31:15;;;;;;;0.00;0.00;;;;;;;;;;5049276;28;20031;-60
2022/08/14 10:33:41;;;;;;;0.10;0.10;;;;;;;;;;5049145;28;20024;-61
2022/08/14 10:36:06;;;;;;;0.07;0.07;;;;;;;;;;5048345;28;20314;-61
2022/08/14 10:38:33;;;;;;;1.00;1.00;;;;;;;;;;5048553;28;20259;-61
2022/08/14 10:41:28;;;;;;;0.20;0.20;;;;;;;;;;5048397;28;20691;-59
2022/08/14 10:44:04;;;;;;;0.00;0.00;;;;;;;;;;5043566;28;20452;-61
2022/08/14 10:46:37;;;;;;;1.10;1.10;;;;;;;;;;5048561;28;20021;-60
2022/08/14 10:49:02;;;;;;;0.10;0.10;;;;;;;;;;5048243;28;20039;-60
2022/08/14 10:51:29;;;;;;;2.00;1.90;;;;;;;;;;5047599;28;20096;-60
2022/08/14 10:53:55;;;;;;;0.00;0.00;;;;;;;;;;5047919;28;20363;-60
2022/08/14 10:56:29;;;;;;;0.00;0.00;;;;;;;;;;5047915;28;20044;-59
2022/08/14 10:58:59;;;;;;;0.00;0.00;;;;;;;;;;5047908;28;20048;-61
2022/08/14 11:01:29;;;;;;;0.00;0.00;;;;;;;;;;5048828;28;20469;-61
2022/08/14 11:03:55;;;;;;;0.30;0.30;;;;;;;;;;5046932;28;20009;-59
2022/08/14 11:06:21;;;;;;;1.15;1.15;;;;;;;;;;5048539;28;20100;-60
2022/08/14 11:08:47;;;;;;;0.20;0.20;;;;;;;;;;5047716;28;20036;-59
2022/08/14 11:11:12;;;;;;;0.00;0.00;;;;;;;;;;5048161;28;20025;-60
2022/08/14 11:13:40;;;;;;;0.00;0.00;;;;;;;;;;5048554;28;20025;-60
2022/08/14 11:16:05;;;;;;;0.20;0.20;;;;;;;;;;5047971;28;20528;-61
2022/08/14 11:18:31;;;;;;;0.00;0.00;;;;;;;;;;5048432;28;20017;-60
2022/08/14 11:21:00;;;;;;;0.00;0.00;;;;;;;;;;5047048;28;20032;-59
2022/08/14 11:23:27;;;;;;;0.00;0.00;;;;;;;;;;5047991;28;20028;-60
2022/08/14 11:25:53;;;;;;;0.00;0.00;;;;;;;;;;5048102;28;20025;-60
2022/08/14 11:28:21;;;;;;;0.60;0.45;;;;;;;;;;5047994;28;20020;-60
2022/08/14 11:30:47;;;;;;;0.00;0.00;;;;;;;;;;5047794;28;20064;-59
2022/08/14 11:33:13;;;;;;;0.10;0.10;;;;;;;;;;5048617;28;20029;-60
2022/08/14 11:35:38;;;;;;;0.35;0.35;;;;;;;;;;5048343;28;20386;-60
2022/08/14 11:38:04;;;;;;;0.00;0.00;;;;;;;;;;5047498;28;20033;-59
2022/08/14 11:40:33;;;;;;;0.00;0.00;;;;;;;;;;5048344;28;20040;-59
2022/08/14 11:43:00;;;;;;;;;;;;;;;;;;5048494;28;20028;-61
2022/08/14 11:45:27;;;;;;;0.30;0.30;;;;;;;;;;5048530;28;19919;-58
2022/08/14 11:47:54;;;;;;;0.00;0.00;;;;;;;;;;5048333;28;20385;-60
2022/08/14 11:50:32;;;;;;;7.93;7.22;;;;;;;;;;5047234;28;20017;-60
2022/08/14 11:52:58;;;;;;;0.55;0.55;;;;;;;;;;5048228;28;20047;-60
2022/08/14 11:55:25;;;;;;;0.00;0.00;;;;;;;;;;5051100;28;20131;-60
2022/08/14 11:58:00;;;;;;;0.17;0.17;;;;;;;;;;5051653;28;20036;-60
2022/08/14 12:00:25;;;;;;;0.00;0.00;;;;;;;;;;5052238;28;20489;-61
2022/08/14 12:02:52;;;;;;;0.00;0.00;;;;;;;;;;5051757;28;20040;-60
2022/08/14 12:05:29;;;;;;;0.00;0.00;;;;;;;;;;5051973;28;20578;-60
2022/08/14 12:07:54;;;;;;;0.00;0.00;;;;;;;;;;5051574;28;20051;-59
2022/08/14 12:10:19;;;;;;;1.40;0.57;;;;;;;;;;5051844;28;20489;-60
2022/08/14 12:12:44;;;;;;;0.00;0.00;;;;;;;;;;5052099;28;20612;-60
2022/08/14 12:15:11;;;;;;;0.00;0.00;;;;;;;;;;5051581;28;20047;-59
2022/08/14 12:17:43;;;;;;;0.00;0.00;;;;;;;;;;5050830;28;20139;-59
2022/08/14 12:20:10;;;;;;;0.00;0.00;;;;;;;;;;5051272;28;20024;-59
2022/08/14 12:22:36;;;;;;;0.10;0.10;;;;;;;;;;5051633;28;20036;-61
2022/08/14 12:25:03;;;;;;;0.00;0.00;;;;;;;;;;5052350;28;20017;-62
2022/08/14 12:27:42;;;;;;;0.00;0.00;;;;;;;;;;5053092;28;20100;-62
2022/08/14 12:30:07;;;;;;;;;;;;;;;;;;5055069;28;20078;-62
2022/08/14 12:32:39;;;;;;;0.17;0.17;;;;;;;;;;5054639;28;19917;-64
2022/08/14 12:35:05;;;;;;;0.17;0.17;;;;;;;;;;5049249;28;20365;-62
2022/08/14 12:37:30;;;;;;;0.65;0.65;;;;;;;;;;5051787;28;20020;-63
2022/08/14 12:40:07;;;;;;;0.65;0.65;;;;;;;;;;5051768;28;20040;-63
2022/08/14 12:42:33;;;;;;;1.05;1.05;;;;;;;;;;5051454;28;20703;-65
2022/08/14 12:44:58;;;;;;;0.10;0.10;;;;;;;;;;5052151;28;20078;-62
2022/08/14 12:47:29;;;;;;;0.28;0.28;;;;;;;;;;5049565;28;20021;-63
2022/08/14 12:49:55;;;;;;;0.00;0.00;;;;;;;;;;5051601;28;20021;-63
2022/08/14 12:52:28;;;;;;;0.20;0.20;;;;;;;;;;5052643;28;20489;-61
2022/08/14 12:54:57;;;;;;;0.00;0.00;;;;;;;;;;5051066;28;20286;-63
2022/08/14 12:57:31;;;;;;;0.47;0.08;;;;;;;;;;5052564;28;21000;-62
2022/08/14 13:00:04;;;;;;;0.65;0.22;;;;;;;;;;5052352;28;20025;-63
2022/08/14 13:02:35;;;;;;;0.00;0.00;;;;;;;;;;5052044;28;20478;-62
2022/08/14 13:05:02;;;;;;;0.80;0.80;;;;;;;;;;5049783;28;20021;-61
2022/08/14 13:07:27;;;;;;;0.52;0.52;;;;;;;;;;5051454;28;20021;-62
2022/08/14 13:09:53;;;;;;;0.10;0.10;;;;;;;;;;5051351;28;20043;-61
2022/08/14 13:12:22;;;;;;;0.00;0.00;;;;;;;;;;5051846;28;20466;-62
2022/08/14 13:14:48;;;;;;;0.03;0.03;;;;;;;;;;5048794;28;20104;-63
2022/08/14 13:17:14;;;;;;;0.80;0.50;;;;;;;;;;5051540;28;20053;-63
2022/08/14 13:19:41;;;;;;;0.00;0.00;;;;;;;;;;5052424;28;20025;-62
2022/08/14 13:22:07;;;;;;;1.17;1.08;;;;;;;;;;5049170;28;20489;-63
2022/08/14 13:24:32;;;;;;;0.70;0.70;;;;;;;;;;5050725;28;20025;-63
2022/08/14 13:27:02;;;;;;;1.02;1.02;;;;;;;;;;5049379;28;20013;-63
2022/08/14 13:29:29;;;;;;;0.65;0.65;;;;;;;;;;5050159;28;20382;-63
2022/08/14 13:31:55;;;;;;;1.27;1.17;;;;;;;;;;5050057;28;20090;-62
2022/08/14 13:34:21;;;;;;;1.45;1.40;;;;;;;;;;5049918;28;20029;-63
2022/08/14 13:36:47;;;;;;;0.45;0.45;;;;;;;;;;5049930;28;20031;-63
2022/08/14 13:39:16;;;;;;;0.73;0.73;;;;;;;;;;5049952;28;20025;-63
2022/08/14 13:41:43;;;;;;;0.17;0.05;;;;;;;;;;5050354;28;20033;-62
2022/08/14 13:44:09;;;;;;;0.63;0.63;;;;;;;;;;5048472;28;20020;-63
2022/08/14 13:46:34;;;;;;;0.00;0.00;;;;;;;;;;5050268;28;20021;-63
2022/08/14 13:49:00;;;;;;;0.20;0.20;;;;;;;;;;5049533;28;20099;-63
2022/08/14 13:51:28;;;;;;;0.57;0.57;;;;;;;;;;5050344;28;20483;-62
2022/08/14 13:53:55;;;;;;;0.00;0.00;;;;;;;;;;5049388;28;20025;-62
2022/08/14 13:56:21;;;;;;;1.38;1.25;;;;;;;;;;5048994;28;20041;-62
2022/08/14 13:58:48;;;;;;;0.00;0.00;;;;;;;;;;5049721;28;20383;-62
2022/08/14 14:01:14;;;;;;;0.52;0.52;;;;;;;;;;5049384;28;20110;-64
2022/08/14 14:03:45;;;;;;;0.00;0.00;;;;;;;;;;5049700;28;20049;-62
2022/08/14 14:06:12;;;;;;;0.08;0.08;;;;;;;;;;5047824;28;20036;-63
2022/08/14 14:08:41;;;;;;;0.00;0.00;;;;;;;;;;5049771;28;20473;-63
2022/08/14 14:11:08;;;;;;;0.00;0.00;;;;;;;;;;5049176;28;20091;-63
2022/08/14 14:13:33;;;;;;;0.00;0.00;;;;;;;;;;5048405;28;20450;-62
2022/08/14 14:16:03;;;;;;;0.30;0.30;;;;;;;;;;5048966;28;20032;-63
2022/08/14 14:18:28;;;;;;;1.20;1.20;;;;;;;;;;5049427;28;20032;-63
2022/08/14 14:20:53;;;;;;;0.40;0.40;;;;;;;;;;5049002;28;20029;-62
2022/08/14 14:23:19;;;;;;;0.00;0.00;;;;;;;;;;5049620;28;20560;-63
2022/08/14 14:25:45;;;;;;;0.00;0.00;;;;;;;;;;5049727;28;20120;-63
2022/08/14 14:28:12;;;;;;;0.00;0.00;;;;;;;;;;5049200;28;20086;-63
2022/08/14 14:30:41;;;;;;;0.45;0.45;;;;;;;;;;5049212;28;20020;-63
2022/08/14 14:33:07;;;;;;;0.75;0.45;;;;;;;;;;5049069;28;20055;-63
2022/08/14 14:35:32;;;;;;;0.00;0.00;;;;;;;;;;5049089;28;20420;-63
2022/08/14 14:37:58;;;;;;;0.32;0.32;;;;;;;;;;5049181;28;20083;-63
2022/08/14 14:40:23;;;;;;;0.00;0.00;;;;;;;;;;5049196;28;20067;-64
2022/08/14 14:42:51;;;;;;;0.00;0.00;;;;;;;;;;5047976;28;20027;-64
2022/08/14 14:45:17;;;;;;;0.88;0.73;;;;;;;;;;5048782;28;20407;-62
2022/08/14 14:47:46;;;;;;;2.30;2.10;;;;;;;;;;5049511;28;20043;-61
2022/08/14 14:50:11;;;;;;;0.98;0.45;;;;;;;;;;5048995;28;20020;-62
2022/08/14 14:52:37;;;;;;;0.00;0.00;;;;;;;;;;5049103;28;20381;-64
2022/08/14 14:55:03;;;;;;;0.00;0.00;;;;;;;;;;5048481;28;20039;-63
2022/08/14 14:57:28;;;;;;;0.10;0.10;;;;;;;;;;5049369;28;20538;-63
2022/08/14 14:59:54;;;;;;;0.10;0.10;;;;;;;;;;5048546;28;20017;-63